createdAt,value
2016-11-26T00:00:57.608Z,0
2016-11-26T00:02:06.303Z,0
2016-11-26T00:03:14.992Z,0
2016-11-26T00:04:23.676Z,0
2016-11-26T00:05:32.364Z,0
2016-11-26T00:06:43.568Z,0
2016-11-26T00:07:52.248Z,0
2016-11-26T00:09:00.937Z,0
2016-11-26T00:10:09.629Z,0
2016-11-26T00:11:18.317Z,0
2016-11-26T00:12:27.004Z,0
2016-11-26T00:13:35.694Z,0
2016-11-26T00:14:44.381Z,0
2016-11-26T00:15:53.073Z,0
2016-11-26T00:17:01.770Z,0
2016-11-26T00:18:10.468Z,0
2016-11-26T00:19:19.157Z,0
2016-11-26T00:20:27.847Z,0
2016-11-26T00:21:36.542Z,0
2016-11-26T00:22:45.232Z,0
2016-11-26T00:23:53.966Z,0
2016-11-26T00:25:02.969Z,0
2016-11-26T00:26:11.690Z,0
2016-11-26T00:27:20.380Z,0
2016-11-26T00:28:29.069Z,0
2016-11-26T00:29:37.762Z,0
2016-11-26T00:30:46.801Z,0
2016-11-26T00:31:55.490Z,0
2016-11-26T00:33:04.182Z,0
2016-11-26T00:34:12.870Z,0
2016-11-26T00:35:21.559Z,0
2016-11-26T00:36:30.244Z,0
2016-11-26T00:37:38.932Z,0
2016-11-26T00:38:47.617Z,0
2016-11-26T00:39:56.302Z,0
2016-11-26T00:41:04.995Z,0
2016-11-26T00:42:13.684Z,0
2016-11-26T00:43:22.371Z,0
2016-11-26T00:44:31.058Z,0
2016-11-26T00:45:39.744Z,0
2016-11-26T00:46:48.436Z,0
2016-11-26T00:47:57.138Z,0
2016-11-26T00:49:06.152Z,0
2016-11-26T00:50:14.839Z,0
2016-11-26T00:51:23.525Z,0
2016-11-26T00:52:32.246Z,0
2016-11-26T00:53:40.933Z,0
2016-11-26T00:54:49.622Z,0
2016-11-26T00:55:58.311Z,0
2016-11-26T00:57:07.310Z,0
2016-11-26T00:58:16.314Z,0
2016-11-26T00:59:25.005Z,0
2016-11-26T01:00:33.694Z,0
2016-11-26T01:01:42.382Z,0
2016-11-26T01:02:51.076Z,0
2016-11-26T01:03:59.793Z,0
2016-11-26T01:05:08.484Z,0
2016-11-26T01:06:17.170Z,0
2016-11-26T01:07:25.860Z,0
2016-11-26T01:08:34.586Z,0
2016-11-26T01:09:43.286Z,0
2016-11-26T01:10:51.983Z,0
2016-11-26T01:12:00.675Z,0
2016-11-26T01:13:09.371Z,0
2016-11-26T01:14:18.061Z,0
2016-11-26T01:15:26.754Z,0
2016-11-26T01:16:35.445Z,0
2016-11-26T01:17:44.132Z,0
2016-11-26T01:18:52.818Z,0
2016-11-26T01:20:01.511Z,0
2016-11-26T01:21:10.227Z,0
2016-11-26T01:22:18.914Z,0
2016-11-26T01:23:27.607Z,0
2016-11-26T01:24:36.612Z,0
2016-11-26T01:25:45.343Z,0
2016-11-26T01:26:54.031Z,0
2016-11-26T01:28:02.757Z,0
2016-11-26T01:29:11.455Z,0
2016-11-26T01:30:20.142Z,0
2016-11-26T01:31:28.831Z,0
2016-11-26T01:32:37.515Z,0
2016-11-26T01:33:46.216Z,0
2016-11-26T01:34:54.903Z,0
2016-11-26T01:36:03.591Z,0
2016-11-26T01:37:12.284Z,0
2016-11-26T01:38:20.975Z,0
2016-11-26T01:39:29.669Z,0
2016-11-26T01:40:38.356Z,0
2016-11-26T01:41:47.074Z,0
2016-11-26T01:42:55.766Z,0
2016-11-26T01:44:04.455Z,0
2016-11-26T01:45:13.168Z,0
2016-11-26T01:46:21.859Z,0
2016-11-26T01:47:30.548Z,0
2016-11-26T01:48:39.264Z,0
2016-11-26T01:49:47.952Z,0
2016-11-26T01:50:56.666Z,0
2016-11-26T01:52:05.668Z,0
2016-11-26T01:53:14.358Z,0
2016-11-26T01:54:23.046Z,0
2016-11-26T01:55:31.736Z,0
2016-11-26T01:56:40.430Z,0
2016-11-26T01:57:49.115Z,0
2016-11-26T01:58:57.811Z,0
2016-11-26T02:00:06.495Z,0
2016-11-26T02:01:15.191Z,0
2016-11-26T02:02:23.882Z,0
2016-11-26T02:03:32.573Z,0
2016-11-26T02:04:41.263Z,0
2016-11-26T02:05:49.954Z,0
2016-11-26T02:06:58.674Z,0
2016-11-26T02:08:07.366Z,0
2016-11-26T02:09:16.057Z,0
2016-11-26T02:10:24.749Z,0
2016-11-26T02:11:33.439Z,0
2016-11-26T02:12:42.130Z,0
2016-11-26T02:13:50.825Z,0
2016-11-26T02:14:59.517Z,0
2016-11-26T02:16:08.205Z,0
2016-11-26T02:17:16.894Z,0
2016-11-26T02:18:25.585Z,0
2016-11-26T02:19:34.278Z,0
2016-11-26T02:20:42.968Z,0
2016-11-26T02:21:51.660Z,0
2016-11-26T02:23:00.350Z,0
2016-11-26T02:24:09.045Z,0
2016-11-26T02:25:17.758Z,0
2016-11-26T02:26:26.445Z,0
2016-11-26T02:27:35.166Z,0
2016-11-26T02:28:43.859Z,0
2016-11-26T02:29:52.553Z,0
2016-11-26T02:31:01.242Z,0
2016-11-26T02:32:09.932Z,0
2016-11-26T02:33:18.625Z,0
2016-11-26T02:34:27.336Z,0
2016-11-26T02:35:36.027Z,0
2016-11-26T02:36:44.719Z,0
2016-11-26T02:37:53.403Z,0
2016-11-26T02:39:02.091Z,0
2016-11-26T02:40:10.783Z,0
2016-11-26T02:41:19.474Z,0
2016-11-26T02:42:28.162Z,0
2016-11-26T02:43:37.164Z,0
2016-11-26T02:44:45.859Z,0
2016-11-26T02:45:54.554Z,0
2016-11-26T02:47:03.245Z,0
2016-11-26T02:48:11.933Z,0
2016-11-26T02:49:20.621Z,0
2016-11-26T02:50:29.311Z,0
2016-11-26T02:51:38.326Z,0
2016-11-26T02:52:47.012Z,0
2016-11-26T02:53:55.702Z,0
2016-11-26T02:55:04.396Z,0
2016-11-26T02:56:13.089Z,0
2016-11-26T02:57:21.778Z,0
2016-11-26T02:58:30.471Z,0
2016-11-26T02:59:39.164Z,0
2016-11-26T03:00:47.870Z,0
2016-11-26T03:01:56.559Z,0
2016-11-26T03:03:05.252Z,0
2016-11-26T03:04:14.261Z,0
2016-11-26T03:05:22.950Z,0
2016-11-26T03:06:31.642Z,0
2016-11-26T03:07:40.332Z,0
2016-11-26T03:08:49.018Z,0
2016-11-26T03:09:57.706Z,0
2016-11-26T03:11:06.395Z,0
2016-11-26T03:12:15.093Z,0
2016-11-26T03:13:23.812Z,0
2016-11-26T03:14:32.537Z,0
2016-11-26T03:15:41.230Z,0
2016-11-26T03:16:49.920Z,0
2016-11-26T03:17:58.614Z,0
2016-11-26T03:19:07.332Z,0
2016-11-26T03:20:16.015Z,0
2016-11-26T03:21:24.702Z,0
2016-11-26T03:22:33.393Z,0
2016-11-26T03:23:42.078Z,0
2016-11-26T03:24:51.082Z,0
2016-11-26T03:25:59.777Z,0
2016-11-26T03:27:08.466Z,0
2016-11-26T03:28:17.475Z,0
2016-11-26T03:29:26.163Z,0
2016-11-26T03:30:34.856Z,0
2016-11-26T03:31:43.549Z,0
2016-11-26T03:32:52.235Z,0
2016-11-26T03:34:00.931Z,0
2016-11-26T03:35:09.621Z,0
2016-11-26T03:36:18.311Z,0
2016-11-26T03:37:26.998Z,0
2016-11-26T03:38:35.712Z,0
2016-11-26T03:39:44.403Z,0
2016-11-26T03:40:53.095Z,0
2016-11-26T03:42:01.785Z,0
2016-11-26T03:43:10.476Z,0
2016-11-26T03:44:19.167Z,0
2016-11-26T03:45:28.192Z,0
2016-11-26T03:46:36.886Z,0
2016-11-26T03:47:45.578Z,0
2016-11-26T03:48:54.584Z,0
2016-11-26T03:50:03.302Z,0
2016-11-26T03:51:11.988Z,0
2016-11-26T03:52:20.679Z,0
2016-11-26T03:53:29.401Z,0
2016-11-26T03:54:38.089Z,0
2016-11-26T03:55:46.778Z,0
2016-11-26T03:56:55.472Z,0
2016-11-26T03:58:04.194Z,0
2016-11-26T03:59:12.890Z,0
2016-11-26T04:00:21.577Z,0
2016-11-26T04:01:30.268Z,0
2016-11-26T04:02:39.012Z,0
2016-11-26T04:03:47.701Z,0
2016-11-26T04:04:56.388Z,0
2016-11-26T04:06:05.098Z,0
2016-11-26T04:07:13.789Z,0
2016-11-26T04:08:22.483Z,0
2016-11-26T04:09:31.181Z,0
2016-11-26T04:10:39.868Z,0
2016-11-26T04:11:48.555Z,0
2016-11-26T04:12:57.246Z,0
2016-11-26T04:14:05.936Z,0
2016-11-26T04:15:14.632Z,0
2016-11-26T04:16:23.352Z,0
2016-11-26T04:17:32.061Z,0
2016-11-26T04:18:40.751Z,0
2016-11-26T04:19:49.440Z,0
2016-11-26T04:20:58.133Z,0
2016-11-26T04:22:06.822Z,0
2016-11-26T04:23:15.514Z,0
2016-11-26T04:24:24.206Z,0
2016-11-26T04:25:32.891Z,0
2016-11-26T04:26:41.581Z,0
2016-11-26T04:27:50.274Z,0
2016-11-26T04:28:58.977Z,0
2016-11-26T04:30:07.671Z,0
2016-11-26T04:31:16.671Z,0
2016-11-26T04:32:25.358Z,0
2016-11-26T04:33:34.051Z,0
2016-11-26T04:34:42.743Z,0
2016-11-26T04:35:51.747Z,0
2016-11-26T04:37:00.442Z,0
2016-11-26T04:38:09.126Z,0
2016-11-26T04:39:17.820Z,0
2016-11-26T04:40:26.512Z,0
2016-11-26T04:41:35.202Z,0
2016-11-26T04:42:43.892Z,0
2016-11-26T04:43:52.588Z,0
2016-11-26T04:45:01.281Z,0
2016-11-26T04:46:09.971Z,0
2016-11-26T04:47:18.665Z,0
2016-11-26T04:48:27.359Z,0
2016-11-26T04:49:36.045Z,0
2016-11-26T04:50:44.729Z,0
2016-11-26T04:51:53.420Z,0
2016-11-26T04:53:02.111Z,0
2016-11-26T04:54:10.807Z,0
2016-11-26T04:55:19.498Z,0
2016-11-26T04:56:28.185Z,0
2016-11-26T04:57:36.870Z,0
2016-11-26T04:58:45.556Z,0
2016-11-26T04:59:54.248Z,0
2016-11-26T05:01:02.945Z,0
2016-11-26T05:02:11.633Z,0
2016-11-26T05:03:20.322Z,0
2016-11-26T05:04:29.017Z,0
2016-11-26T05:05:37.705Z,0
2016-11-26T05:06:46.715Z,0
2016-11-26T05:07:55.446Z,0
2016-11-26T05:09:04.135Z,0
2016-11-26T05:10:12.821Z,0
2016-11-26T05:11:21.514Z,0
2016-11-26T05:12:30.211Z,0
2016-11-26T05:13:38.907Z,0
2016-11-26T05:14:47.596Z,0
2016-11-26T05:15:56.285Z,0
2016-11-26T05:17:04.976Z,0
2016-11-26T05:18:13.666Z,0
2016-11-26T05:19:22.356Z,0
2016-11-26T05:20:31.038Z,0
2016-11-26T05:21:39.724Z,0
2016-11-26T05:22:48.414Z,0
2016-11-26T05:23:57.113Z,0
2016-11-26T05:25:05.801Z,0
2016-11-26T05:26:14.490Z,0
2016-11-26T05:27:23.186Z,0
2016-11-26T05:28:31.900Z,0
2016-11-26T05:29:40.591Z,0
2016-11-26T05:30:49.604Z,0
2016-11-26T05:31:58.294Z,0
2016-11-26T05:33:06.983Z,0
2016-11-26T05:34:15.776Z,0
2016-11-26T05:35:24.472Z,0
2016-11-26T05:36:33.162Z,0
2016-11-26T05:37:41.850Z,0
2016-11-26T05:38:50.543Z,0
2016-11-26T05:39:59.250Z,0
2016-11-26T05:41:07.938Z,0
2016-11-26T05:42:16.630Z,0
2016-11-26T05:43:25.318Z,0
2016-11-26T05:44:34.013Z,0
2016-11-26T05:45:42.703Z,0
2016-11-26T05:46:51.400Z,0
2016-11-26T05:48:00.092Z,0
2016-11-26T05:49:08.784Z,0
2016-11-26T05:50:17.792Z,0
2016-11-26T05:51:26.483Z,0
2016-11-26T05:52:35.171Z,0
2016-11-26T05:53:43.862Z,0
2016-11-26T05:54:52.551Z,0
2016-11-26T05:56:01.241Z,0
2016-11-26T05:57:09.936Z,0
2016-11-26T05:58:18.626Z,0
2016-11-26T05:59:27.318Z,0
2016-11-26T06:00:35.999Z,0
2016-11-26T06:01:44.690Z,0
2016-11-26T06:02:53.401Z,0
2016-11-26T06:04:02.089Z,0
2016-11-26T06:05:10.789Z,0
2016-11-26T06:06:19.479Z,0
2016-11-26T06:07:28.171Z,0
2016-11-26T06:08:36.889Z,0
2016-11-26T06:09:45.587Z,0
2016-11-26T06:10:54.278Z,0
2016-11-26T06:12:02.970Z,0
2016-11-26T06:13:11.661Z,0
2016-11-26T06:14:20.345Z,0
2016-11-26T06:15:29.034Z,0
2016-11-26T06:16:37.733Z,0
2016-11-26T06:17:46.418Z,0
2016-11-26T06:18:55.116Z,0
2016-11-26T06:20:03.816Z,0
2016-11-26T06:21:12.510Z,0
2016-11-26T06:22:21.219Z,0
2016-11-26T06:23:29.910Z,0
2016-11-26T06:24:38.603Z,0
2016-11-26T06:25:47.296Z,0
2016-11-26T06:26:55.986Z,0
2016-11-26T06:28:04.679Z,0
2016-11-26T06:29:13.373Z,0
2016-11-26T06:30:22.059Z,0
2016-11-26T06:31:30.750Z,0
2016-11-26T06:32:39.442Z,0
2016-11-26T06:33:48.131Z,0
2016-11-26T06:34:56.818Z,0
2016-11-26T06:36:05.509Z,0
2016-11-26T06:37:14.195Z,0
2016-11-26T06:38:22.888Z,0
2016-11-26T06:39:31.577Z,0
2016-11-26T06:40:40.273Z,0
2016-11-26T06:41:48.963Z,0
2016-11-26T06:42:57.649Z,0
2016-11-26T06:44:06.339Z,0
2016-11-26T06:45:15.031Z,0
2016-11-26T06:46:23.746Z,0
2016-11-26T06:47:32.439Z,0
2016-11-26T06:48:41.124Z,0
2016-11-26T06:49:49.817Z,0
2016-11-26T06:50:58.510Z,0
2016-11-26T06:52:07.200Z,0
2016-11-26T06:53:15.895Z,0
2016-11-26T06:54:24.585Z,0
2016-11-26T06:55:33.272Z,0
2016-11-26T06:56:41.959Z,0
2016-11-26T06:57:50.650Z,0
2016-11-26T06:58:59.341Z,0
2016-11-26T07:00:08.041Z,0
2016-11-26T07:01:16.748Z,0
2016-11-26T07:02:25.442Z,0
2016-11-26T07:03:34.131Z,0
2016-11-26T07:04:42.824Z,0
2016-11-26T07:05:51.519Z,0
2016-11-26T07:07:00.212Z,0
2016-11-26T07:08:08.910Z,0
2016-11-26T07:09:17.915Z,0
2016-11-26T07:10:26.602Z,0
2016-11-26T07:11:35.611Z,0
2016-11-26T07:12:44.302Z,0
2016-11-26T07:13:52.986Z,0
2016-11-26T07:15:01.684Z,0
2016-11-26T07:16:10.378Z,0
2016-11-26T07:17:19.064Z,0
2016-11-26T07:18:27.756Z,0
2016-11-26T07:19:36.445Z,0
2016-11-26T07:20:45.138Z,0
2016-11-26T07:21:53.826Z,0
2016-11-26T07:23:02.515Z,0
2016-11-26T07:24:11.204Z,0
2016-11-26T07:25:20.213Z,0
2016-11-26T07:26:28.901Z,0
2016-11-26T07:27:37.591Z,0
2016-11-26T07:28:46.281Z,0
2016-11-26T07:29:54.967Z,0
2016-11-26T07:31:03.664Z,0
2016-11-26T07:32:12.665Z,0
2016-11-26T07:33:21.354Z,0
2016-11-26T07:34:30.039Z,5
2016-11-26T07:35:38.726Z,5
2016-11-26T07:36:47.419Z,5
2016-11-26T07:37:56.421Z,5
2016-11-26T07:39:05.105Z,5
2016-11-26T07:40:13.795Z,5
2016-11-26T07:41:22.481Z,5
2016-11-26T07:42:31.168Z,5
2016-11-26T07:43:39.857Z,5
2016-11-26T07:44:48.545Z,10
2016-11-26T07:45:57.238Z,10
2016-11-26T07:47:05.958Z,10
2016-11-26T07:48:14.648Z,10
2016-11-26T07:49:23.341Z,10
2016-11-26T07:50:32.028Z,15
2016-11-26T07:51:40.717Z,15
2016-11-26T07:52:49.726Z,15
2016-11-26T07:53:58.412Z,15
2016-11-26T07:55:07.104Z,15
2016-11-26T07:56:15.840Z,20
2016-11-26T07:57:24.560Z,20
2016-11-26T07:58:33.253Z,20
2016-11-26T07:59:41.945Z,20
2016-11-26T08:00:50.634Z,25
2016-11-26T08:01:59.323Z,25
2016-11-26T08:03:08.047Z,25
2016-11-26T08:04:16.736Z,25
2016-11-26T08:05:25.454Z,30
2016-11-26T08:06:34.155Z,30
2016-11-26T08:07:42.843Z,30
2016-11-26T08:08:51.534Z,30
2016-11-26T08:10:00.227Z,30
2016-11-26T08:11:08.916Z,35
2016-11-26T08:12:17.606Z,35
2016-11-26T08:13:26.293Z,35
2016-11-26T08:14:34.981Z,35
2016-11-26T08:15:43.672Z,40
2016-11-26T08:16:52.361Z,40
2016-11-26T08:18:01.049Z,40
2016-11-26T08:19:09.755Z,45
2016-11-26T08:20:18.446Z,45
2016-11-26T08:21:27.138Z,50
2016-11-26T08:22:35.825Z,50
2016-11-26T08:23:44.513Z,50
2016-11-26T08:24:53.209Z,55
2016-11-26T08:26:01.898Z,55
2016-11-26T08:27:10.592Z,55
2016-11-26T08:28:19.274Z,55
2016-11-26T08:29:27.958Z,60
2016-11-26T08:30:36.649Z,60
2016-11-26T08:31:45.340Z,60
2016-11-26T08:32:54.030Z,60
2016-11-26T08:34:02.722Z,60
2016-11-26T08:35:11.412Z,60
2016-11-26T08:36:20.101Z,60
2016-11-26T08:37:28.792Z,60
2016-11-26T08:38:37.484Z,65
2016-11-26T08:39:46.174Z,65
2016-11-26T08:40:54.866Z,65
2016-11-26T08:42:03.553Z,65
2016-11-26T08:43:12.248Z,65
2016-11-26T08:44:20.938Z,65
2016-11-26T08:45:29.627Z,70
2016-11-26T08:46:38.323Z,70
2016-11-26T08:47:47.021Z,70
2016-11-26T08:48:55.715Z,70
2016-11-26T08:50:04.408Z,75
2016-11-26T08:51:13.102Z,75
2016-11-26T08:52:22.100Z,75
2016-11-26T08:53:30.790Z,75
2016-11-26T08:54:39.804Z,75
2016-11-26T08:55:48.491Z,75
2016-11-26T08:56:57.177Z,80
2016-11-26T08:58:05.865Z,80
2016-11-26T08:59:14.553Z,80
2016-11-26T09:00:23.294Z,80
2016-11-26T09:01:31.988Z,80
2016-11-26T09:02:40.678Z,80
2016-11-26T09:03:49.370Z,85
2016-11-26T09:04:58.058Z,85
2016-11-26T09:06:06.754Z,90
2016-11-26T09:07:15.478Z,85
2016-11-26T09:08:24.163Z,85
2016-11-26T09:09:32.850Z,90
2016-11-26T09:10:41.542Z,90
2016-11-26T09:11:50.241Z,90
2016-11-26T09:12:58.931Z,90
2016-11-26T09:14:07.623Z,90
2016-11-26T09:15:16.310Z,90
2016-11-26T09:16:25.001Z,90
2016-11-26T09:17:33.699Z,95
2016-11-26T09:18:42.392Z,95
2016-11-26T09:19:51.078Z,95
2016-11-26T09:20:59.777Z,95
2016-11-26T09:22:08.464Z,95
2016-11-26T09:23:17.169Z,95
2016-11-26T09:24:25.870Z,100
2016-11-26T09:25:34.560Z,100
2016-11-26T09:26:43.251Z,100
2016-11-26T09:27:51.946Z,100
2016-11-26T09:29:00.639Z,100
2016-11-26T09:30:09.330Z,100
2016-11-26T09:31:18.023Z,105
2016-11-26T09:32:26.712Z,105
2016-11-26T09:33:35.399Z,105
2016-11-26T09:34:44.087Z,105
2016-11-26T09:35:52.782Z,105
2016-11-26T09:37:01.474Z,105
2016-11-26T09:38:10.168Z,105
2016-11-26T09:39:18.862Z,105
2016-11-26T09:40:27.558Z,105
2016-11-26T09:41:36.255Z,110
2016-11-26T09:42:44.946Z,110
2016-11-26T09:43:53.634Z,110
2016-11-26T09:45:02.346Z,110
2016-11-26T09:46:11.042Z,110
2016-11-26T09:47:19.733Z,110
2016-11-26T09:48:28.424Z,110
2016-11-26T09:49:37.110Z,110
2016-11-26T09:50:45.800Z,110
2016-11-26T09:51:54.488Z,115
2016-11-26T09:53:03.181Z,115
2016-11-26T09:54:11.868Z,115
2016-11-26T09:55:20.554Z,115
2016-11-26T09:56:29.270Z,115
2016-11-26T09:57:37.961Z,115
2016-11-26T09:58:46.651Z,115
2016-11-26T09:59:55.340Z,115
2016-11-26T10:01:04.036Z,115
2016-11-26T10:02:12.736Z,120
2016-11-26T10:03:21.739Z,120
2016-11-26T10:04:30.460Z,120
2016-11-26T10:05:39.146Z,120
2016-11-26T10:06:47.841Z,120
2016-11-26T10:07:56.532Z,120
2016-11-26T10:09:05.222Z,120
2016-11-26T10:10:13.909Z,120
2016-11-26T10:11:22.599Z,120
2016-11-26T10:12:31.628Z,125
2016-11-26T10:13:40.316Z,125
2016-11-26T10:14:49.011Z,125
2016-11-26T10:15:57.730Z,125
2016-11-26T10:17:06.735Z,130
2016-11-26T10:18:15.422Z,130
2016-11-26T10:19:24.117Z,130
2016-11-26T10:20:32.805Z,125
2016-11-26T10:21:41.501Z,125
2016-11-26T10:22:50.186Z,130
2016-11-26T10:23:58.878Z,130
2016-11-26T10:25:07.564Z,150
2016-11-26T10:26:16.254Z,335
2016-11-26T10:27:24.946Z,475
2016-11-26T10:28:33.656Z,505
2016-11-26T10:29:42.349Z,505
2016-11-26T10:30:51.040Z,435
2016-11-26T10:31:59.728Z,365
2016-11-26T10:33:08.422Z,320
2016-11-26T10:34:17.112Z,290
2016-11-26T10:35:25.801Z,265
2016-11-26T10:36:34.491Z,255
2016-11-26T10:37:43.182Z,255
2016-11-26T10:38:51.871Z,250
2016-11-26T10:40:00.565Z,245
2016-11-26T10:41:09.257Z,240
2016-11-26T10:42:17.941Z,245
2016-11-26T10:43:26.633Z,245
2016-11-26T10:44:35.326Z,245
2016-11-26T10:45:44.018Z,250
2016-11-26T10:46:52.709Z,250
2016-11-26T10:48:01.399Z,250
2016-11-26T10:49:10.092Z,250
2016-11-26T10:50:18.788Z,255
2016-11-26T10:51:27.482Z,260
2016-11-26T10:52:36.176Z,260
2016-11-26T10:53:44.864Z,265
2016-11-26T10:54:53.556Z,265
2016-11-26T10:56:02.249Z,270
2016-11-26T10:57:10.940Z,275
2016-11-26T10:58:19.637Z,275
2016-11-26T10:59:28.329Z,275
2016-11-26T11:00:37.022Z,275
2016-11-26T11:01:45.715Z,280
2016-11-26T11:02:54.410Z,280
2016-11-26T11:04:03.113Z,280
2016-11-26T11:05:11.811Z,285
2016-11-26T11:06:20.510Z,285
2016-11-26T11:07:29.196Z,285
2016-11-26T11:08:37.891Z,285
2016-11-26T11:09:46.590Z,290
2016-11-26T11:10:55.281Z,290
2016-11-26T11:12:03.975Z,290
2016-11-26T11:13:12.669Z,290
2016-11-26T11:14:22.329Z,290
2016-11-26T11:15:31.031Z,290
2016-11-26T11:16:39.727Z,295
2016-11-26T11:17:48.422Z,295
2016-11-26T11:18:57.117Z,295
2016-11-26T11:20:05.814Z,300
2016-11-26T11:21:14.510Z,300
2016-11-26T11:22:23.203Z,305
2016-11-26T11:23:31.897Z,305
2016-11-26T11:24:40.606Z,305
2016-11-26T11:25:49.299Z,315
2016-11-26T11:26:57.998Z,320
2016-11-26T11:28:06.694Z,315
2016-11-26T11:29:15.391Z,320
2016-11-26T11:30:24.086Z,315
2016-11-26T11:31:32.781Z,315
2016-11-26T11:32:41.508Z,315
2016-11-26T11:33:50.203Z,320
2016-11-26T11:34:58.905Z,320
2016-11-26T11:36:07.608Z,320
2016-11-26T11:37:16.299Z,320
2016-11-26T11:38:24.992Z,320
2016-11-26T11:39:33.686Z,325
2016-11-26T11:40:42.381Z,325
2016-11-26T11:41:51.072Z,325
2016-11-26T11:42:59.767Z,325
2016-11-26T11:44:08.460Z,330
2016-11-26T11:45:17.153Z,330
2016-11-26T11:46:25.854Z,330
2016-11-26T11:47:34.551Z,330
2016-11-26T11:48:43.247Z,335
2016-11-26T11:49:51.968Z,335
2016-11-26T11:51:00.659Z,340
2016-11-26T11:52:09.349Z,335
2016-11-26T11:53:18.043Z,340
2016-11-26T11:54:26.733Z,345
2016-11-26T11:55:35.450Z,345
2016-11-26T11:56:44.149Z,350
2016-11-26T11:57:52.848Z,355
2016-11-26T11:59:01.547Z,355
2016-11-26T12:00:10.572Z,355
2016-11-26T12:01:19.267Z,360
2016-11-26T12:02:27.963Z,360
2016-11-26T12:03:36.717Z,365
2016-11-26T12:04:45.408Z,365
2016-11-26T12:05:54.106Z,375
2016-11-26T12:07:02.803Z,380
2016-11-26T12:08:11.496Z,380
2016-11-26T12:09:20.193Z,390
2016-11-26T12:10:28.889Z,395
2016-11-26T12:11:37.584Z,395
2016-11-26T12:12:46.275Z,410
2016-11-26T12:13:54.968Z,410
2016-11-26T12:15:03.664Z,420
2016-11-26T12:16:12.361Z,420
2016-11-26T12:17:21.054Z,435
2016-11-26T12:18:29.745Z,450
2016-11-26T12:19:38.441Z,455
2016-11-26T12:20:47.139Z,450
2016-11-26T12:21:55.832Z,450
2016-11-26T12:23:04.839Z,460
2016-11-26T12:24:13.537Z,480
2016-11-26T12:25:22.230Z,510
2016-11-26T12:26:30.923Z,515
2016-11-26T12:27:39.973Z,520
2016-11-26T12:28:48.673Z,535
2016-11-26T12:29:57.366Z,545
2016-11-26T12:31:06.059Z,545
2016-11-26T12:32:14.757Z,555
2016-11-26T12:33:23.449Z,570
2016-11-26T12:34:32.140Z,675
2016-11-26T12:35:40.832Z,820
2016-11-26T12:36:49.525Z,775
2016-11-26T12:37:58.272Z,680
2016-11-26T12:39:06.978Z,620
2016-11-26T12:40:15.676Z,595
2016-11-26T12:41:24.366Z,585
2016-11-26T12:42:33.061Z,595
2016-11-26T12:43:41.759Z,580
2016-11-26T12:44:50.452Z,565
2016-11-26T12:45:59.179Z,540
2016-11-26T12:47:07.881Z,535
2016-11-26T12:48:16.574Z,525
2016-11-26T12:49:25.272Z,530
2016-11-26T12:50:33.969Z,520
2016-11-26T12:51:42.663Z,520
2016-11-26T12:52:51.356Z,520
2016-11-26T12:54:00.051Z,505
2016-11-26T12:55:09.101Z,500
2016-11-26T12:56:17.799Z,495
2016-11-26T12:57:26.532Z,490
2016-11-26T12:58:35.243Z,485
2016-11-26T12:59:43.937Z,480
2016-11-26T13:00:52.639Z,475
2016-11-26T13:02:01.338Z,445
2016-11-26T13:03:10.031Z,460
2016-11-26T13:04:18.724Z,465
2016-11-26T13:05:27.461Z,360
2016-11-26T13:06:36.157Z,215
2016-11-26T13:07:44.862Z,195
2016-11-26T13:08:53.555Z,160
2016-11-26T13:10:02.255Z,130
2016-11-26T13:11:10.984Z,125
2016-11-26T13:12:19.687Z,150
2016-11-26T13:13:28.693Z,180
2016-11-26T13:14:37.427Z,145
2016-11-26T13:15:46.161Z,85
2016-11-26T13:16:54.859Z,80
2016-11-26T13:18:03.551Z,85
2016-11-26T13:19:12.271Z,85
2016-11-26T13:20:20.962Z,80
2016-11-26T13:21:29.683Z,80
2016-11-26T13:22:38.381Z,75
2016-11-26T13:23:47.076Z,75
2016-11-26T13:24:55.762Z,75
2016-11-26T13:26:04.454Z,70
2016-11-26T13:27:13.156Z,70
2016-11-26T13:28:21.847Z,65
2016-11-26T13:29:30.531Z,65
2016-11-26T13:30:39.221Z,60
2016-11-26T13:31:47.909Z,60
2016-11-26T13:32:56.604Z,60
2016-11-26T13:34:05.293Z,60
2016-11-26T13:35:14.011Z,55
2016-11-26T13:36:22.699Z,55
2016-11-26T13:37:31.389Z,55
2016-11-26T13:38:40.072Z,55
2016-11-26T13:39:48.766Z,55
2016-11-26T13:40:57.509Z,55
2016-11-26T13:42:06.199Z,50
2016-11-26T13:43:14.893Z,50
2016-11-26T13:44:23.587Z,50
2016-11-26T13:45:32.277Z,50
2016-11-26T13:46:40.966Z,50
2016-11-26T13:47:49.661Z,45
2016-11-26T13:48:58.677Z,45
2016-11-26T13:50:07.366Z,45
2016-11-26T13:51:16.051Z,45
2016-11-26T13:52:24.736Z,45
2016-11-26T13:53:33.423Z,40
2016-11-26T13:54:42.121Z,40
2016-11-26T13:55:51.135Z,40
2016-11-26T13:56:59.821Z,35
2016-11-26T13:58:08.509Z,35
2016-11-26T13:59:17.521Z,35
2016-11-26T14:00:26.208Z,35
2016-11-26T14:01:34.897Z,30
2016-11-26T14:02:43.629Z,30
2016-11-26T14:03:52.317Z,30
2016-11-26T14:05:01.003Z,30
2016-11-26T14:06:09.712Z,25
2016-11-26T14:07:18.429Z,25
2016-11-26T14:08:27.118Z,25
2016-11-26T14:09:35.807Z,25
2016-11-26T14:10:44.497Z,25
2016-11-26T14:11:53.187Z,20
2016-11-26T14:13:01.878Z,20
2016-11-26T14:14:10.571Z,20
2016-11-26T14:15:19.361Z,20
2016-11-26T14:16:28.054Z,20
2016-11-26T14:17:36.750Z,15
2016-11-26T14:18:45.435Z,15
2016-11-26T14:19:54.120Z,15
2016-11-26T14:21:02.811Z,15
2016-11-26T14:22:11.496Z,15
2016-11-26T14:23:20.184Z,15
2016-11-26T14:24:28.874Z,10
2016-11-26T14:25:37.559Z,10
2016-11-26T14:26:46.246Z,10
2016-11-26T14:27:54.932Z,10
2016-11-26T14:29:03.643Z,10
2016-11-26T14:30:12.333Z,10
2016-11-26T14:31:21.024Z,10
2016-11-26T14:32:29.712Z,5
2016-11-26T14:33:38.397Z,5
2016-11-26T14:34:47.088Z,5
2016-11-26T14:35:55.773Z,5
2016-11-26T14:37:04.459Z,5
2016-11-26T14:38:13.149Z,5
2016-11-26T14:39:22.159Z,5
2016-11-26T14:40:30.845Z,5
2016-11-26T14:41:39.534Z,0
2016-11-26T14:42:48.229Z,0
2016-11-26T14:43:56.921Z,0
2016-11-26T14:45:05.612Z,0
2016-11-26T14:46:14.297Z,0
2016-11-26T14:47:22.984Z,0
2016-11-26T14:48:31.672Z,0
2016-11-26T14:49:40.356Z,0
2016-11-26T14:50:49.053Z,0
2016-11-26T14:51:57.744Z,0
2016-11-26T14:53:06.433Z,0
2016-11-26T14:54:15.134Z,0
2016-11-26T14:55:23.825Z,0
2016-11-26T14:56:32.511Z,0
2016-11-26T14:57:41.202Z,0
2016-11-26T14:58:49.891Z,0
2016-11-26T14:59:58.584Z,0
2016-11-26T15:01:07.272Z,0
2016-11-26T15:02:15.962Z,0
2016-11-26T15:03:24.650Z,0
2016-11-26T15:04:33.340Z,0
2016-11-26T15:05:42.030Z,0
2016-11-26T15:06:50.718Z,0
2016-11-26T15:07:59.405Z,0
2016-11-26T15:09:08.101Z,0
2016-11-26T15:10:16.789Z,0
2016-11-26T15:11:25.481Z,0
2016-11-26T15:12:34.483Z,0
2016-11-26T15:13:43.169Z,0
2016-11-26T15:14:51.857Z,0
2016-11-26T15:16:00.545Z,0
2016-11-26T15:17:09.231Z,0
2016-11-26T15:18:17.922Z,0
2016-11-26T15:19:26.611Z,0
2016-11-26T15:20:35.298Z,0
2016-11-26T15:21:43.985Z,0
2016-11-26T15:22:52.680Z,0
2016-11-26T15:24:01.387Z,0
2016-11-26T15:25:10.076Z,0
2016-11-26T15:26:18.771Z,0
2016-11-26T15:27:27.460Z,0
2016-11-26T15:28:36.260Z,0
2016-11-26T15:29:48.434Z,0
2016-11-26T15:30:58.490Z,0
2016-11-26T15:32:07.919Z,0
2016-11-26T15:33:16.870Z,0
2016-11-26T15:34:25.867Z,0
2016-11-26T15:35:34.603Z,0
2016-11-26T15:36:43.605Z,0
2016-11-26T15:37:52.295Z,0
2016-11-26T15:39:00.985Z,0
2016-11-26T15:40:09.676Z,0
2016-11-26T15:41:18.413Z,0
2016-11-26T15:42:27.131Z,0
2016-11-26T15:43:35.822Z,0
2016-11-26T15:44:44.512Z,0
2016-11-26T15:45:53.196Z,0
2016-11-26T15:47:02.039Z,0
2016-11-26T15:48:11.040Z,0
2016-11-26T15:49:19.725Z,0
2016-11-26T15:50:28.413Z,0
2016-11-26T15:51:37.105Z,0
2016-11-26T15:52:45.845Z,0
2016-11-26T15:53:54.533Z,0
2016-11-26T15:55:03.225Z,0
2016-11-26T15:56:11.915Z,0
2016-11-26T15:57:20.607Z,0
2016-11-26T15:58:29.348Z,0
2016-11-26T15:59:38.036Z,0
2016-11-26T16:00:46.728Z,0
2016-11-26T16:01:55.410Z,0
2016-11-26T16:03:04.110Z,0
2016-11-26T16:04:12.851Z,0
2016-11-26T16:05:21.542Z,0
2016-11-26T16:06:30.233Z,0
2016-11-26T16:07:38.927Z,0
2016-11-26T16:08:47.620Z,0
2016-11-26T16:09:56.313Z,0
2016-11-26T16:11:05.031Z,0
2016-11-26T16:12:13.719Z,0
2016-11-26T16:13:22.416Z,0
2016-11-26T16:14:31.100Z,0
2016-11-26T16:15:40.106Z,0
2016-11-26T16:16:48.800Z,0
2016-11-26T16:17:57.489Z,0
2016-11-26T16:19:06.211Z,0
2016-11-26T16:20:14.899Z,0
2016-11-26T16:21:23.586Z,0
2016-11-26T16:22:32.273Z,0
2016-11-26T16:23:40.964Z,0
2016-11-26T16:24:49.652Z,0
2016-11-26T16:25:58.346Z,0
2016-11-26T16:27:07.036Z,0
2016-11-26T16:28:15.724Z,0
2016-11-26T16:29:24.422Z,0
2016-11-26T16:30:33.116Z,0
2016-11-26T16:31:41.801Z,0
2016-11-26T16:32:50.490Z,0